Latest Weather Observations for Southern Cross Airport

IDW60801

Issued at 9:03 pm WST Sunday 5 July 2015 (issued every 30 minutes, with the page automatically refreshed every 10 minutes)

About weather observations | Map of weather stations | Latest weather observations for WA | Other Formats
Station Details ID: 012320 Name: SOUTHERN CROSS AIRFIELD Lat: -31.24 Lon: 119.36 Height: 347.4 m
Data from the previous 72 hours. | See also: Recent months at Southern Cross Airport
Date/Time
WST
Temp
°C
App
Temp
°C
Dew
Point
Rel
Hum
%
Delta-T
°C
Wind Press
QNH
hPa
Press
MSL
hPa
Rain
since 9 am
mm
Dir
 
Spd
km/h
Gust
km/h
Spd
kts
Gust
kts
05/09:00pm 7.9 7.0 5.9 87 0.9 CALM 0 0 0 0 1022.2 1022.5 0.0
05/08:30pm 8.4 7.6 6.5 88 0.9 CALM 0 0 0 0 1022.2 1022.5 0.0
05/08:00pm 9.0 7.7 6.1 82 1.4 SSE 2 6 1 3 1022.1 1022.4 0.0
05/07:30pm 10.3 9.3 7.2 81 1.5 S 2 7 1 4 1021.9 1022.2 0.0
05/07:00pm 10.6 9.5 6.9 78 1.8 S 2 6 1 3 1021.7 1022.0 0.0
05/06:30pm 12.1 10.5 8.0 76 2.0 W 6 7 3 4 1021.7 1022.0 0.0
05/06:00pm 12.6 11.0 7.9 73 2.3 W 6 6 3 3 1021.3 1021.5 0.0
05/05:30pm 14.0 12.2 7.8 66 3.1 W 7 9 4 5 1021.0 1021.2 0.0
05/05:00pm 16.0 13.8 8.0 59 4.1 W 9 13 5 7 1021.0 1021.2 0.0
05/04:30pm 16.9 14.8 8.3 57 4.5 WSW 9 15 5 8 1020.9 1021.1 0.0
05/04:00pm 17.2 14.3 8.1 55 4.7 SW 13 17 7 9 1020.7 1020.9 0.0
05/03:30pm 17.5 14.6 8.1 54 4.9 WSW 13 19 7 10 1020.7 1020.9 0.0
05/03:00pm 17.7 14.5 8.3 54 4.9 SW 15 20 8 11 1020.5 1020.8 0.0
05/02:30pm 17.2 14.2 9.1 59 4.3 SW 15 20 8 11 1020.5 1020.8 0.0
05/02:00pm 17.2 14.5 9.1 59 4.3 W 13 19 7 10 1020.9 1021.1 0.0
05/01:30pm 17.7 14.7 9.1 57 4.6 WNW 15 20 8 11 1021.1 1021.3 0.0
05/01:00pm 16.7 15.3 9.6 63 3.8 WSW 7 11 4 6 1021.4 1021.6 0.0
05/12:30pm 16.2 14.6 11.4 73 2.6 W 11 17 6 9 1021.7 1022.0 0.0
05/12:00pm 15.2 13.9 11.2 77 2.2 WSW 9 17 5 9 1022.0 1022.3 0.0
05/11:30am 14.6 13.3 11.2 80 1.8 W 9 15 5 8 1022.7 1023.0 0.0
05/11:00am 13.7 14.2 11.7 88 1.1 CALM 0 6 0 3 1023.0 1023.3 0.0
05/10:30am 12.8 12.3 12.2 96 0.3 WSW 6 7 3 4 1023.1 1023.4 0.0
05/10:00am 11.6 12.0 11.1 97 0.3 CALM 0 0 0 0 1023.2 1023.5 0.0
05/09:30am 10.7 10.4 10.2 97 0.3 N 2 7 1 4 1023.1 1023.4 0.0
05/09:00am 9.7 9.5 9.2 97 0.3 CALM 0 6 0 3 1023.0 1023.3 0.0
05/08:30am 8.8 8.1 8.4 97 0.2 SE 2 7 1 4 1022.8 1023.1 0.0
05/08:00am 8.3 6.7 7.9 97 0.2 N 6 7 3 4 1022.6 1022.9 0.0
05/07:30am 7.5 5.1 7.1 97 0.2 WNW 9 13 5 7 1022.4 1022.7 0.0
05/07:00am 7.8 6.1 7.4 97 0.2 NNE 6 9 3 5 1022.2 1022.5 0.0
05/06:30am 6.9 6.1 6.5 97 0.2 CALM 0 0 0 0 1022.1 1022.4 0.0
05/06:00am 6.0 5.0 5.4 96 0.3 CALM 0 0 0 0 1021.8 1022.1 0.0
05/05:30am 5.5 4.4 4.9 96 0.3 CALM 0 0 0 0 1021.6 1021.9 0.0
05/05:00am 5.0 3.8 4.4 96 0.3 CALM 0 0 0 0 1021.3 1021.5 0.0
05/04:30am 6.5 5.6 5.9 96 0.3 CALM 0 0 0 0 1021.3 1021.5 0.0
05/04:00am 6.2 5.2 5.5 95 0.3 CALM 0 0 0 0 1021.3 1021.5 0.0
05/03:30am 6.5 5.5 5.8 95 0.3 CALM 0 0 0 0 1021.3 1021.5 0.0
05/03:00am 6.8 5.9 6.1 95 0.3 CALM 0 0 0 0 1021.3 1021.5 0.0
05/02:30am 6.9 6.0 6.2 95 0.3 CALM 0 0 0 0 1021.4 1021.6 0.0
05/02:00am 7.5 6.7 6.6 94 0.4 CALM 0 0 0 0 1021.3 1021.5 0.0
05/01:30am 8.2 7.6 7.3 94 0.4 CALM 0 0 0 0 1021.3 1021.5 0.0
05/01:00am 8.9 8.4 8.0 94 0.4 CALM 0 0 0 0 1021.3 1021.5 0.0
05/12:30am 9.7 9.4 8.8 94 0.4 CALM 0 0 0 0 1021.4 1021.6 0.0
05/12:00am 10.1 8.8 9.2 94 0.5 N 6 7 3 4 1021.6 1021.9 0.0
 
Date/Time
WST
Temp
°C
App
Temp
°C
Dew
Point
Rel
Hum
%
Delta-T
°C
Wind Press
QNH
hPa
Press
MSL
hPa
Rain
since 9 am
mm
Dir
 
Spd
km/h
Gust
km/h
Spd
kts
Gust
kts
04/11:30pm 9.9 9.7 9.0 94 0.5 CALM 0 0 0 0 1021.6 1021.9 0.0
04/11:00pm 9.4 8.7 8.5 94 0.4 S 2 7 1 4 1021.8 1022.1 0.0
04/10:30pm 8.5 6.6 7.6 94 0.4 NNE 7 9 4 5 1021.9 1022.2 0.0
04/10:00pm 8.0 7.3 6.9 93 0.5 CALM 0 0 0 0 1022.0 1022.3 0.0
04/09:30pm 8.6 8.0 7.5 93 0.5 CALM 0 0 0 0 1022.1 1022.4 0.0
04/09:00pm 8.9 8.0 7.7 92 0.6 N 2 6 1 3 1022.0 1022.3 0.0
04/08:30pm 9.5 9.1 8.3 92 0.6 CALM 0 9 0 5 1021.9 1022.2 0.0
04/08:00pm 9.8 9.4 8.2 90 0.8 CALM 0 0 0 0 1022.0 1022.3 0.0
04/07:30pm 11.2 9.8 9.5 89 0.9 SW 7 9 4 5 1022.0 1022.3 0.0
04/07:00pm 11.4 10.0 9.5 88 1.0 WSW 7 9 4 5 1022.0 1022.3 0.0
04/06:30pm 11.8 10.0 9.5 86 1.2 WSW 9 11 5 6 1021.8 1022.1 0.0
04/06:00pm 12.9 10.1 10.1 83 1.5 WSW 15 17 8 9 1021.7 1022.0 0.0
04/05:30pm 14.0 10.6 10.4 79 1.9 WSW 19 22 10 12 1021.5 1021.8 0.0
04/05:00pm 15.1 11.7 10.5 74 2.5 WSW 19 28 10 15 1021.5 1021.8 0.0
04/04:30pm 15.7 11.5 11.1 74 2.5 WSW 24 30 13 16 1021.4 1021.6 0.0
04/04:00pm 16.4 13.0 11.3 72 2.8 WSW 20 24 11 13 1021.3 1021.5 0.0
04/03:30pm 17.2 14.1 11.7 70 3.1 WSW 19 26 10 14 1021.2 1021.4 0.0
04/03:00pm 17.8 14.8 12.0 69 3.2 WSW 19 26 10 14 1021.1 1021.3 0.0
04/02:30pm 18.4 15.4 11.9 66 3.6 WSW 19 24 10 13 1021.0 1021.2 0.0
04/02:00pm 18.8 16.2 11.9 64 3.9 W 17 24 9 13 1021.0 1021.2 0.0
04/01:30pm 18.5 15.6 12.3 67 3.5 W 19 24 10 13 1021.3 1021.5 0.0
04/01:00pm 18.1 15.5 13.2 73 2.8 W 19 26 10 14 1021.6 1021.9 0.0
04/12:30pm 17.4 16.7 13.3 77 2.3 W 9 17 5 9 1021.9 1022.2 0.0
04/12:00pm 16.5 17.1 13.2 81 1.9 NW 2 11 1 6 1022.4 1022.7 0.0
04/11:30am 15.2 16.4 13.9 92 0.7 CALM 0 0 0 0 1023.0 1023.3 0.0
04/11:00am 13.2 13.6 12.6 96 0.3 N 2 7 1 4 1023.3 1023.6 0.0
04/10:30am 12.4 11.9 11.9 97 0.3 N 6 7 3 4 1023.8 1024.0 0.0
04/10:00am 11.8 11.1 11.3 97 0.3 NNW 6 9 3 5 1023.9 1024.2 0.0
04/09:30am 10.8 10.9 10.3 97 0.3 CALM 0 0 0 0 1023.8 1024.0 0.0
04/09:00am 9.8 8.9 9.3 97 0.3 NNW 4 7 2 4 1023.8 1024.0 0.2
04/08:30am 9.1 7.6 8.6 97 0.2 NE 6 6 3 3 1023.5 1023.8 0.2
04/08:00am 8.4 7.9 8.0 97 0.2 CALM 0 0 0 0 1023.6 1023.9 0.2
04/07:30am 7.6 5.8 7.2 97 0.2 ENE 6 9 3 5 1023.3 1023.6 0.2
04/07:00am 6.9 6.1 6.5 97 0.2 CALM 0 0 0 0 1023.3 1023.6 0.2
04/06:30am 6.7 5.9 6.3 97 0.2 CALM 0 0 0 0 1023.2 1023.5 0.2
04/06:00am 6.5 4.8 6.1 97 0.2 W 4 6 2 3 1022.8 1023.1 0.2
04/05:30am 6.4 4.3 5.8 96 0.3 WSW 6 9 3 5 1022.5 1022.8 0.2
04/05:00am 6.8 5.9 6.2 96 0.3 CALM 0 0 0 0 1022.4 1022.7 0.0
04/04:30am 7.0 6.2 6.4 96 0.3 CALM 0 0 0 0 1022.4 1022.7 0.0
04/04:00am 7.1 6.3 6.5 96 0.3 CALM 0 0 0 0 1022.5 1022.8 0.0
04/03:30am 7.0 6.2 6.4 96 0.3 CALM 0 0 0 0 1022.5 1022.8 0.0
04/03:00am 7.3 6.5 6.7 96 0.3 CALM 0 0 0 0 1022.7 1023.0 0.0
04/02:30am 7.0 6.2 6.4 96 0.3 CALM 0 0 0 0 1022.9 1023.2 0.0
04/02:00am 7.0 6.2 6.4 96 0.3 CALM 0 0 0 0 1023.0 1023.3 0.0
04/01:30am 7.3 6.5 6.7 96 0.3 CALM 0 0 0 0 1023.1 1023.4 0.0
04/01:00am 7.2 6.4 6.5 95 0.3 CALM 0 0 0 0 1023.2 1023.5 0.0
04/12:30am 7.6 6.9 6.9 95 0.3 CALM 0 0 0 0 1023.1 1023.4 0.0
04/12:00am 8.6 8.1 7.7 94 0.4 CALM 0 0 0 0 1023.1 1023.4 0.0
 
Date/Time
WST
Temp
°C
App
Temp
°C
Dew
Point
Rel
Hum
%
Delta-T
°C
Wind Press
QNH
hPa
Press
MSL
hPa
Rain
since 9 am
mm
Dir
 
Spd
km/h
Gust
km/h
Spd
kts
Gust
kts
03/11:30pm 8.9 8.4 8.0 94 0.4 CALM 0 0 0 0 1023.1 1023.4 0.0
03/11:00pm 8.8 8.3 7.9 94 0.4 CALM 0 0 0 0 1023.4 1023.7 0.0
03/10:30pm 9.3 8.9 8.2 93 0.5 CALM 0 0 0 0 1023.5 1023.8 0.0
03/10:00pm 9.1 8.6 7.9 92 0.6 CALM 0 0 0 0 1023.6 1023.9 0.0
03/09:30pm 10.2 9.5 8.6 90 0.8 SE 2 6 1 3 1023.6 1023.9 0.0
03/09:00pm 11.3 11.3 9.9 91 0.7 CALM 0 0 0 0 1023.6 1023.9 0.0
03/08:30pm 11.7 11.8 10.3 91 0.7 CALM 0 0 0 0 1023.6 1023.9 0.0
03/08:00pm 11.9 12.0 10.1 89 0.9 CALM 0 0 0 0 1023.5 1023.8 0.0
03/07:30pm 12.7 12.9 10.4 86 1.2 CALM 0 0 0 0 1023.5 1023.8 0.0
03/07:00pm 13.4 13.6 10.6 83 1.5 CALM 0 2 0 1 1023.3 1023.6 0.0
03/06:30pm 14.9 14.2 11.3 79 2.0 SW 6 6 3 3 1023.0 1023.3 0.0
03/06:00pm 15.1 14.2 11.5 79 2.0 SW 7 7 4 4 1022.8 1023.1 0.0
03/05:30pm 15.3 13.6 11.3 77 2.2 WSW 11 13 6 7 1022.6 1022.9 0.0
03/05:00pm 17.2 15.8 10.8 66 3.5 W 9 13 5 7 1022.3 1022.6 0.0
03/04:30pm 18.2 15.5 10.3 60 4.3 W 15 19 8 10 1022.2 1022.5 0.0
03/04:00pm 18.8 15.8 10.6 59 4.5 W 17 22 9 12 1022.0 1022.3 0.0
03/03:30pm 18.6 15.5 10.4 59 4.5 W 17 20 9 11 1022.1 1022.4 0.0
03/03:00pm 19.2 15.5 10.2 56 4.9 WNW 20 28 11 15 1022.0 1022.3 0.0
03/02:30pm 18.4 15.4 10.7 61 4.2 W 17 26 9 14 1022.0 1022.3 0.0
03/02:00pm 18.2 14.7 10.8 62 4.0 W 20 30 11 16 1022.0 1022.3 0.0
03/01:30pm 18.3 14.9 11.4 64 3.8 WNW 20 28 11 15 1022.1 1022.4 0.0
03/01:00pm 18.0 14.6 11.1 64 3.8 WNW 20 28 11 15 1022.3 1022.6 0.0
03/12:30pm 18.4 15.9 12.4 68 3.4 W 17 22 9 12 1022.4 1022.7 0.0
03/12:00pm 17.7 14.9 11.3 66 3.5 WNW 17 22 9 12 1022.8 1023.1 0.0
03/11:30am 18.0 15.8 12.0 68 3.4 W 15 22 8 12 1023.2 1023.5 0.0
03/11:00am 17.2 14.4 11.2 68 3.3 W 17 20 9 11 1023.6 1023.9 0.0
03/10:30am 17.0 15.9 10.8 67 3.4 W 7 15 4 8 1023.9 1024.2 0.0
03/10:00am 15.8 15.6 10.3 70 2.9 NW 2 7 1 4 1024.1 1024.4 0.0
03/09:30am 14.1 14.1 9.7 75 2.3 CALM 0 0 0 0 1024.1 1024.4 0.0
03/09:00am 11.9 11.8 9.6 86 1.2 CALM 0 0 0 0 1024.1 1024.4 -
03/08:30am 9.8 9.5 8.7 93 0.5 CALM 0 0 0 0 1023.9 1024.2 -
03/08:00am 8.0 7.3 7.1 94 0.4 CALM 0 0 0 0 1023.6 1023.9 -
03/07:30am 6.8 5.9 5.9 94 0.4 CALM 0 0 0 0 1023.3 1023.6 -
03/07:00am 6.7 4.6 5.8 94 0.4 ESE 6 7 3 4 1023.0 1023.3 -
03/06:30am 7.1 6.2 6.2 94 0.4 CALM 0 0 0 0 1022.9 1023.2 -
03/06:00am 7.0 6.1 5.9 93 0.5 CALM 0 0 0 0 1022.5 1022.8 -
03/05:30am 8.3 7.7 7.4 94 0.4 CALM 0 0 0 0 1022.6 1022.9 -
03/05:00am 8.9 8.4 7.8 93 0.5 CALM 0 0 0 0 1022.4 1022.7 -
03/04:30am 9.6 8.5 8.4 92 0.6 WSW 4 9 2 5 1022.4 1022.7 -
03/04:00am 10.5 10.4 9.3 92 0.6 CALM 0 0 0 0 1022.7 1023.0 -
03/03:30am 10.5 9.2 9.1 91 0.7 S 6 9 3 5 1022.8 1023.1 -
03/03:00am 11.0 10.6 9.6 91 0.7 SSW 2 7 1 4 1022.9 1023.2 0.6
03/02:30am 11.1 9.7 9.7 91 0.7 E 7 9 4 5 1023.2 1023.5 -
03/02:00am 11.3 10.1 9.6 89 0.9 SSE 6 11 3 6 1023.9 1024.2 -
03/01:30am 11.3 11.2 9.6 89 0.9 CALM 0 0 0 0 1024.1 1024.4 -
03/01:00am 11.4 10.9 9.3 87 1.1 E 2 7 1 4 1024.2 1024.5 -
03/12:30am 11.7 10.8 9.4 86 1.2 W 4 9 2 5 1024.5 1024.8 -
03/12:00am 11.6 10.1 9.3 86 1.2 N 7 9 4 5 1024.7 1025.0 -
 
Date/Time
WST
Temp
°C
App
Temp
°C
Dew
Point
Rel
Hum
%
Delta-T
°C
Wind Press
QNH
hPa
Press
MSL
hPa
Rain
since 9 am
mm
Dir
 
Spd
km/h
Gust
km/h
Spd
kts
Gust
kts
02/11:30pm 11.6 9.9 9.7 88 1.0 NNW 9 11 5 6 1024.7 1025.0 -
02/11:00pm 11.6 10.8 9.5 87 1.1 NE 4 7 2 4 1024.3 1024.6 -
02/10:30pm 12.0 11.9 9.4 84 1.3 CALM 0 2 0 1 1024.6 1024.9 -
02/10:00pm 12.1 11.6 9.5 84 1.3 NW 2 6 1 3 1024.8 1025.1 -
02/09:30pm 12.7 11.3 8.8 77 2.0 NNE 6 9 3 5 1024.7 1025.0 -

Other Formats:

Comma delimited format used in spreadsheet applications
http://www.bom.gov.au/fwo/IDW60801/IDW60801.95634.axf

JavaScript Object Notation format (JSON) in row-major order
http://www.bom.gov.au/fwo/IDW60801/IDW60801.95634.json